Serenade Of The Seas — C6FV8 — position and weather

sailwx.info

Track history (hours):
 
Tides and Currents Weather Stations Pressure Air Temp Water Temp Dewpoint Dewpoint Depression Visibility Wind Speed Wind Dir Waves Ship Positions

Serenade Of The Seas

Operator: Royal Caribbean Cruises Ltd

Last reported at 2017-Feb-17 01:32 UTC. Time now 2017-Feb-24 08:20 UTC.
Position N 16°14' W 061°60'.

Length 294 m; draft 8.5 m.

Type: Ship. MMSI: 311492000.

Date/timePositionNaut miles runAvg speedWind from/ knotsBaromVisibWave heightAir tempDewpointWater temp
2017-Feb-17 01:32N 16°14' W 061°60'1515.7
2017-Feb-17 00:33N 16°29' W 062°01'1615.9
2017-Feb-16 23:33N 16°45' W 062°02'1515.2
2017-Feb-16 22:33N 17°00' W 062°03'1111.0
2017-Feb-16 21:33N 17°09' W 061°57'6 5.9
2017-Feb-16 20:33N 17°07' W 061°51'0 0.0
2017-Feb-16 19:33N 17°07' W 061°51'0 0.0
2017-Feb-16 18:33N 17°07' W 061°51'0 0.0
2017-Feb-16 17:33N 17°07' W 061°51'0 0.0
2017-Feb-16 16:33N 17°07' W 061°51'0 0.0
2017-Feb-16 15:33N 17°07' W 061°51'0 0.0
2017-Feb-16 14:33N 17°07' W 061°51'0 0.0
2017-Feb-16 13:33N 17°07' W 061°51'0 0.0
2017-Feb-16 12:33N 17°07' W 061°51'0 0.0
2017-Feb-16 11:33N 17°07' W 061°51'3 2.6
2017-Feb-16 10:33N 17°08' W 061°53'1818.1
2017-Feb-16 09:33N 17°18' W 062°09'2019.8
2017-Feb-16 08:33N 17°30' W 062°26'4119.6
2017-Feb-16 06:28N 17°53' W 063°02'2019.2
2017-Feb-16 05:26N 18°05' W 063°18'  
2017-Feb-13 22:33N 26°10' W 079°41'1918.8
2017-Feb-13 21:33N 26°06' W 080°02'5 3.9
2017-Feb-13 20:23N 26°05' W 080°07'0 0.0
2017-Feb-13 19:26N 26°05' W 080°07'0 0.0
2017-Feb-13 18:26N 26°05' W 080°07'0 0.0
2017-Feb-13 17:29N 26°05' W 080°07'0 0.0
2017-Feb-13 16:29N 26°05' W 080°07'0 0.0
2017-Feb-13 15:29N 26°05' W 080°07'0 0.0
2017-Feb-13 14:29N 26°05' W 080°07'0 0.0
2017-Feb-13 13:32N 26°05' W 080°07'0 0.0
2017-Feb-13 12:32N 26°05' W 080°07'0 0.3
2017-Feb-13 11:33N 26°06' W 080°07'1110.6
2017-Feb-13 10:33N 26°07' W 079°55'1615.9
2017-Feb-13 09:33N 26°11' W 079°38'  
2017-Feb-10 21:32N 18°05' W 063°16'13 2.1
2017-Feb-10 15:23N 18°01' W 063°03'0 0.0
2017-Feb-10 13:14N 18°01' W 063°03'0 0.0
2017-Feb-10 10:32N 18°01' W 063°03'4 4.0
2017-Feb-10 09:33N 17°59' W 063°06'7 6.7
2017-Feb-10 08:27N 17°54' W 063°01'45 7.6
2017-Feb-10 02:33N 17°28' W 062°22'8 7.9
2017-Feb-10 01:33N 17°23' W 062°15'8 8.0
2017-Feb-10 00:33N 17°18' W 062°09'8 8.2
2017-Feb-09 23:33N 17°14' W 062°02'8 8.1
2017-Feb-09 22:33N 17°09' W 061°55'4 4.2
2017-Feb-09 21:33N 17°07' W 061°51'0 0.0
2017-Feb-09 20:33N 17°07' W 061°51'0 0.0
2017-Feb-09 19:33N 17°07' W 061°51'0 0.0
2017-Feb-09 18:33N 17°07' W 061°51'0 0.0
2017-Feb-09 17:33N 17°07' W 061°51'0 0.0
2017-Feb-09 16:33N 17°07' W 061°51'0 0.0
2017-Feb-09 15:33N 17°07' W 061°51'0 0.0
2017-Feb-09 14:33N 17°07' W 061°51'0 0.0
2017-Feb-09 13:33N 17°07' W 061°51'0 0.0
2017-Feb-09 12:33N 17°07' W 061°51'0 0.0
2017-Feb-09 11:33N 17°07' W 061°51'0 0.0
2017-Feb-09 10:33N 17°07' W 061°51'0 0.0
2017-Feb-09 09:33N 17°07' W 061°51'0 0.1
2017-Feb-09 08:33N 17°07' W 061°51'1010.5
2017-Feb-09 07:34N 17°10' W 062°02'1817.6
2017-Feb-09 06:34N 16°52' W 062°03'1918.5
2017-Feb-09 05:34N 16°33' W 062°03'1717.0
2017-Feb-09 04:34N 16°16' W 062°04'50 9.5
2017-Feb-08 23:19N 15°31' W 061°42'810.2
2017-Feb-08 22:30N 15°26' W 061°36'6 0.4
2017-Feb-08 09:06N 15°30' W 061°39'610.1
2017-Feb-08 08:33N 15°35' W 061°42'4310.2
2017-Feb-08 04:19N 16°12' W 062°06'810.8
2017-Feb-08 03:33N 16°19' W 062°11'1110.9
2017-Feb-08 02:34N 16°28' W 062°17'1010.2
2017-Feb-08 01:33N 16°36' W 062°23'1010.3
2017-Feb-08 00:34N 16°45' W 062°29'3510.2
2017-Feb-07 21:09N 17°17' W 062°43'35 2.5
2017-Feb-07 07:10N 17°41' W 063°10'6 9.4
2017-Feb-07 06:33N 17°44' W 063°15'20 9.4
2017-Feb-07 04:28N 17°52' W 063°34'  
Track history (hours):
 
Tides and Currents Weather Stations Pressure Air Temp Water Temp Dewpoint Dewpoint Depression Visibility Wind Speed Wind Dir Waves Ship Positions

Serenade Of The Seas

Operator: Royal Caribbean Cruises Ltd

Last reported at 2017-Feb-17 01:32 UTC. Time now 2017-Feb-24 08:20 UTC.
Position N 16°14' W 061°60'.

Length 294 m; draft 8.5 m.

Type: Ship. MMSI: 311492000.

Date/timePositionNaut miles runAvg speedWind from/ knotsBaromVisibWave heightAir tempDewpointWater temp
2017-Feb-17 01:32N 16°14' W 061°60'1515.7
2017-Feb-17 00:33N 16°29' W 062°01'1615.9
2017-Feb-16 23:33N 16°45' W 062°02'1515.2
2017-Feb-16 22:33N 17°00' W 062°03'1111.0
2017-Feb-16 21:33N 17°09' W 061°57'6 5.9
2017-Feb-16 20:33N 17°07' W 061°51'0 0.0
2017-Feb-16 19:33N 17°07' W 061°51'0 0.0
2017-Feb-16 18:33N 17°07' W 061°51'0 0.0
2017-Feb-16 17:33N 17°07' W 061°51'0 0.0
2017-Feb-16 16:33N 17°07' W 061°51'0 0.0
2017-Feb-16 15:33N 17°07' W 061°51'0 0.0
2017-Feb-16 14:33N 17°07' W 061°51'0 0.0
2017-Feb-16 13:33N 17°07' W 061°51'0 0.0
2017-Feb-16 12:33N 17°07' W 061°51'0 0.0
2017-Feb-16 11:33N 17°07' W 061°51'3 2.6
2017-Feb-16 10:33N 17°08' W 061°53'1818.1
2017-Feb-16 09:33N 17°18' W 062°09'2019.8
2017-Feb-16 08:33N 17°30' W 062°26'4119.6
2017-Feb-16 06:28N 17°53' W 063°02'2019.2
2017-Feb-16 05:26N 18°05' W 063°18'  
2017-Feb-13 22:33N 26°10' W 079°41'1918.8
2017-Feb-13 21:33N 26°06' W 080°02'5 3.9
2017-Feb-13 20:23N 26°05' W 080°07'0 0.0
2017-Feb-13 19:26N 26°05' W 080°07'0 0.0
2017-Feb-13 18:26N 26°05' W 080°07'0 0.0
2017-Feb-13 17:29N 26°05' W 080°07'0 0.0
2017-Feb-13 16:29N 26°05' W 080°07'0 0.0
2017-Feb-13 15:29N 26°05' W 080°07'0 0.0
2017-Feb-13 14:29N 26°05' W 080°07'0 0.0
2017-Feb-13 13:32N 26°05' W 080°07'0 0.0
2017-Feb-13 12:32N 26°05' W 080°07'0 0.3
2017-Feb-13 11:33N 26°06' W 080°07'1110.6
2017-Feb-13 10:33N 26°07' W 079°55'1615.9
2017-Feb-13 09:33N 26°11' W 079°38'  
2017-Feb-10 21:32N 18°05' W 063°16'13 2.1
2017-Feb-10 15:23N 18°01' W 063°03'0 0.0
2017-Feb-10 13:14N 18°01' W 063°03'0 0.0
2017-Feb-10 10:32N 18°01' W 063°03'4 4.0
2017-Feb-10 09:33N 17°59' W 063°06'7 6.7
2017-Feb-10 08:27N 17°54' W 063°01'45 7.6
2017-Feb-10 02:33N 17°28' W 062°22'8 7.9
2017-Feb-10 01:33N 17°23' W 062°15'8 8.0
2017-Feb-10 00:33N 17°18' W 062°09'8 8.2
2017-Feb-09 23:33N 17°14' W 062°02'8 8.1
2017-Feb-09 22:33N 17°09' W 061°55'4 4.2
2017-Feb-09 21:33N 17°07' W 061°51'0 0.0
2017-Feb-09 20:33N 17°07' W 061°51'0 0.0
2017-Feb-09 19:33N 17°07' W 061°51'0 0.0
2017-Feb-09 18:33N 17°07' W 061°51'0 0.0
2017-Feb-09 17:33N 17°07' W 061°51'0 0.0
2017-Feb-09 16:33N 17°07' W 061°51'0 0.0
2017-Feb-09 15:33N 17°07' W 061°51'0 0.0
2017-Feb-09 14:33N 17°07' W 061°51'0 0.0
2017-Feb-09 13:33N 17°07' W 061°51'0 0.0
2017-Feb-09 12:33N 17°07' W 061°51'0 0.0
2017-Feb-09 11:33N 17°07' W 061°51'0 0.0
2017-Feb-09 10:33N 17°07' W 061°51'0 0.0
2017-Feb-09 09:33N 17°07' W 061°51'0 0.1
2017-Feb-09 08:33N 17°07' W 061°51'1010.5
2017-Feb-09 07:34N 17°10' W 062°02'1817.6
2017-Feb-09 06:34N 16°52' W 062°03'1918.5
2017-Feb-09 05:34N 16°33' W 062°03'1717.0
2017-Feb-09 04:34N 16°16' W 062°04'50 9.5
2017-Feb-08 23:19N 15°31' W 061°42'810.2
2017-Feb-08 22:30N 15°26' W 061°36'6 0.4
2017-Feb-08 09:06N 15°30' W 061°39'610.1
2017-Feb-08 08:33N 15°35' W 061°42'4310.2
2017-Feb-08 04:19N 16°12' W 062°06'810.8
2017-Feb-08 03:33N 16°19' W 062°11'1110.9
2017-Feb-08 02:34N 16°28' W 062°17'1010.2
2017-Feb-08 01:33N 16°36' W 062°23'1010.3
2017-Feb-08 00:34N 16°45' W 062°29'3510.2
2017-Feb-07 21:09N 17°17' W 062°43'35 2.5
2017-Feb-07 07:10N 17°41' W 063°10'6 9.4
2017-Feb-07 06:33N 17°44' W 063°15'20 9.4
2017-Feb-07 04:28N 17°52' W 063°34'  

Dump ship's entire track history